首页
METAR-TAF:

METAR-TAF

机场 :

蒙彼利埃, 法国

纬度: 43-35N, 经度: 003-58E, 海拔: 5米

当前天气观测

该预报发布于36分钟前的00:30 UTC
静风
温度 4°C
湿度 75%
气压 1005 hPa
能见度10公里或以上
1500米以下无云,无积雨云

METAR: LFMT 140030Z AUTO 00000KT CAVOK 04/00 Q1005 TEMPO 4000 BR

时间: 02:06 (01:06 UTC)

预报

该预报发布于5小时和6分钟前的20:00 UTC
预报有效从13日的 21点(UTC)到 14日的 21点(UTC)
风速10节,风向西
能见度10公里或以上
1500米以下无云,无积雨云
短暂存在
从 13日的 22点(UTC)到 14日的 03点(UTC)
风速3节,风向多变
能見度: 4000
轻雾
成为
从 14日的 03点(UTC)到 14日的 05点(UTC)
风速10节,风向东北
几率 30% :
短暂存在
从 14日的 06点(UTC)到 14日的 09点(UTC)
风速15节,风向东北,有时为25节阵风
多云层高于2000英尺
成为
从 14日的 09点(UTC)到 14日的 11点(UTC)
风速10节,风向北转西北
散云层高于2000英尺

TAF: LFMT 132000Z 1321/1421 28010KT CAVOK TEMPO 1322/1403 VRB03KT 4000 BR BECMG 1403/1405 04010KT PROB30 TEMPO 1406/1409 04015G25KT RA BKN020 BECMG 1409/1411 34010KT SCT020

超过4000个机场的气象观测和天气预报(METAR&TAF报告)。

可查询的气象台以黄色和红色小点在地图上表示。

将鼠标移到小点上方,可查看气象台名称。

然后点击查看天气观测和预报。

如需切换地图:点击带黑十字的绿色按钮放大地图;点击带横线的绿色按钮缩小地图;或者点击绿色箭头查看邻近地区的地图。


METAR-TAF: